메인 페이지
METAR-TAF:

METAR-TAF

공항 :

티후아나 국제공항

티후아나, 멕시코

위도: 32-33N, 경도: 116-58W, 고도: 152m

현재 날씨관측

예보는 1 시간 19분 전, 19:41시(UTC)에 발표되었습니다.
서남서11kt
온도 21°C
습도 64%
기압 1017 hPa
시정: 16.1km
맑음

METAR: MMTJ 131941Z 25011KT 10SM SKC 21/14 A3002 RMK HZY ST W

시각: 14:00 (21:00 UTC)

예보

예보는 3 시간 44분 전, 17:16시(UTC)에 발표되었습니다.
예보 대상 시간: 13일 18시부터 14일 18시까지 (UTC)
10kt
시정: 10km
맑음
14일 0300시부터 (UTC)
kt
시정: 8.0km
고도 1000ft 상공 흐림
연무
14일 0900시부터 (UTC)
kt
시정: 3.2km
고도 600ft 상공 흐림
박무
14일 1600시부터 (UTC)
kt
시정: 10km
고도 1000ft 상공 구름 보통

TAF: MMTJ 131716Z 1318/1418 28010KT P6SM SKC TX26/1321Z TN15/1412Z FM140300 00000KT 5SM HZ OVC010 FM140900 00000KT 2SM BR OVC006 FM141600 00000KT P6SM SCT010

4,000개 이상의 공항 관측 자료 및 예보 (METAR 및 TAF 보고).

지도상에서 검색 가능한 기상관측소가 노란 점과 빨간 점으로 표시되어 있습니다.

기상관측소 명을 보려면 표시 위로 마우스를 이동하세요.

날씨 관측과 예보를 보려면 클릭하세요.

지도 변경 : 확대하려면 엑스 표시가 있는 녹색 버튼, 축소하려면 빼기 표시가 있는 녹색 버튼, 다음 페이지의 지도를 보려면 녹색 화살표를 클릭하세요.


METAR-TAF: